createdAt,value
2018-07-19T00:01:31.892Z,1.98
2018-07-19T00:04:00.092Z,1.90
2018-07-19T00:06:28.251Z,2.20
2018-07-19T00:08:56.709Z,1.90
2018-07-19T00:11:25.190Z,1.77
2018-07-19T00:13:53.651Z,1.77
2018-07-19T00:16:22.200Z,1.80
2018-07-19T00:18:50.614Z,1.98
2018-07-19T00:21:19.154Z,2.10
2018-07-19T00:23:47.845Z,2.10
2018-07-19T00:26:16.340Z,2.33
2018-07-19T00:28:44.769Z,2.47
2018-07-19T00:31:13.936Z,2.02
2018-07-19T00:33:49.234Z,2.10
2018-07-19T00:36:17.708Z,1.92
2018-07-19T00:38:46.128Z,2.17
2018-07-19T00:41:15.289Z,2.15
2018-07-19T00:43:43.835Z,1.90
2018-07-19T00:46:12.243Z,1.92
2018-07-19T00:48:40.658Z,2.05
2018-07-19T00:51:09.102Z,2.05
2018-07-19T00:53:37.559Z,2.20
2018-07-19T00:56:06.059Z,2.30
2018-07-19T00:58:35.098Z,2.20
2018-07-19T01:01:03.583Z,1.92
2018-07-19T01:03:32.052Z,1.80
2018-07-19T01:06:00.481Z,1.95
2018-07-19T01:08:28.872Z,1.92
2018-07-19T01:10:57.383Z,1.90
2018-07-19T01:13:25.785Z,2.20
2018-07-19T01:15:54.256Z,3.33
2018-07-19T01:18:22.688Z,2.47
2018-07-19T01:20:51.139Z,2.65
2018-07-19T01:23:19.597Z,2.10
2018-07-19T01:25:48.199Z,2.00
2018-07-19T01:28:16.608Z,2.20
2018-07-19T01:30:45.104Z,2.67
2018-07-19T01:33:13.536Z,2.10
2018-07-19T01:35:41.970Z,2.40
2018-07-19T01:38:10.488Z,2.60
2018-07-19T01:40:38.928Z,2.58
2018-07-19T01:43:07.352Z,2.50
2018-07-19T01:45:35.912Z,2.70
2018-07-19T01:48:04.430Z,2.50
2018-07-19T01:50:32.953Z,2.40
2018-07-19T01:53:01.330Z,2.15
2018-07-19T01:55:30.436Z,2.47
2018-07-19T01:57:58.964Z,2.30
2018-07-19T02:00:27.501Z,2.00
2018-07-19T02:02:55.939Z,2.75
2018-07-19T02:05:24.375Z,2.50
2018-07-19T02:07:53.376Z,2.70
2018-07-19T02:10:22.581Z,2.60
2018-07-19T02:12:50.976Z,2.35
2018-07-19T02:15:19.389Z,2.72
2018-07-19T02:17:47.824Z,3.00
2018-07-19T02:20:16.276Z,2.37
2018-07-19T02:22:44.768Z,2.67
2018-07-19T02:25:13.180Z,2.30
2018-07-19T02:27:41.684Z,2.40
2018-07-19T02:30:10.116Z,2.87
2018-07-19T02:32:38.561Z,2.58
2018-07-19T02:35:07.062Z,3.08
2018-07-19T02:37:35.492Z,2.55
2018-07-19T02:40:03.992Z,3.20
2018-07-19T02:42:33.081Z,3.12
2018-07-19T02:45:01.501Z,3.20
2018-07-19T02:47:30.052Z,3.20
2018-07-19T02:49:58.489Z,2.62
2018-07-19T02:52:26.930Z,3.00
2018-07-19T02:54:55.428Z,2.92
2018-07-19T02:57:23.835Z,3.10
2018-07-19T02:59:52.275Z,2.80
2018-07-19T03:02:20.816Z,3.20
2018-07-19T03:04:49.221Z,3.00
2018-07-19T03:07:17.649Z,3.08
2018-07-19T03:09:46.640Z,3.70
2018-07-19T03:12:15.064Z,3.10
2018-07-19T03:14:44.108Z,2.95
2018-07-19T03:17:12.611Z,3.40
2018-07-19T03:19:41.145Z,3.33
2018-07-19T03:22:09.577Z,3.20
2018-07-19T03:24:37.987Z,3.27
2018-07-19T03:27:07.101Z,3.30
2018-07-19T03:29:35.569Z,3.55
2018-07-19T03:32:04.012Z,3.50
2018-07-19T03:34:32.408Z,3.50
2018-07-19T03:37:01.300Z,3.37
2018-07-19T03:39:29.740Z,3.17
2018-07-19T03:41:58.207Z,3.58
2018-07-19T03:44:26.616Z,2.87
2018-07-19T03:46:55.040Z,3.30
2018-07-19T03:49:23.463Z,3.55
2018-07-19T03:51:52.721Z,3.35
2018-07-19T03:54:21.300Z,3.60
2018-07-19T03:56:49.737Z,3.35
2018-07-19T03:59:18.780Z,3.55
2018-07-19T04:01:47.803Z,3.17
2018-07-19T04:04:16.304Z,3.40
2018-07-19T04:06:44.721Z,3.77
2018-07-19T04:09:13.171Z,3.52
2018-07-19T04:11:41.657Z,3.70
2018-07-19T04:14:10.120Z,3.27
2018-07-19T04:16:38.573Z,4.00
2018-07-19T04:19:07.131Z,3.52
2018-07-19T04:21:35.655Z,3.80
2018-07-19T04:24:04.230Z,3.90
2018-07-19T04:26:32.756Z,3.92
2018-07-19T04:29:01.188Z,3.72
2018-07-19T04:31:30.424Z,3.83
2018-07-19T04:33:58.858Z,4.08
2018-07-19T04:36:27.493Z,3.47
2018-07-19T04:38:55.912Z,3.85
2018-07-19T04:41:25.132Z,3.37
2018-07-19T04:43:53.647Z,4.10
2018-07-19T04:46:22.180Z,4.53
2018-07-19T04:48:50.608Z,3.90
2018-07-19T04:51:19.093Z,3.87
2018-07-19T04:53:47.488Z,4.33
2018-07-19T04:56:15.950Z,4.90
2018-07-19T04:58:44.721Z,5.05
2018-07-19T05:01:13.167Z,5.28
2018-07-19T05:03:41.588Z,4.65
2018-07-19T05:06:10.012Z,4.72
2018-07-19T05:08:38.777Z,5.25
2018-07-19T05:11:07.311Z,5.00
2018-07-19T05:13:35.757Z,4.30
2018-07-19T05:16:04.235Z,5.30
2018-07-19T05:18:32.670Z,4.45
2018-07-19T05:21:01.160Z,4.25
2018-07-19T05:23:29.571Z,4.75
2018-07-19T05:25:58.631Z,4.60
2018-07-19T05:28:27.200Z,4.67
2018-07-19T05:30:55.607Z,4.40
2018-07-19T05:33:24.081Z,4.97
2018-07-19T05:35:52.553Z,4.45
2018-07-19T05:38:21.029Z,3.85
2018-07-19T05:40:49.540Z,3.75
2018-07-19T05:43:18.004Z,4.35
2018-07-19T05:45:46.458Z,3.90
2018-07-19T05:48:15.093Z,3.67
2018-07-19T05:50:43.620Z,4.25
2018-07-19T05:53:12.118Z,4.28
2018-07-19T05:55:40.548Z,4.30
2018-07-19T05:58:09.087Z,3.83
2018-07-19T06:00:37.473Z,4.28
2018-07-19T06:03:06.196Z,4.10
2018-07-19T06:05:34.677Z,3.60
2018-07-19T06:08:03.158Z,3.67
2018-07-19T06:10:31.604Z,3.70
2018-07-19T06:13:00.101Z,3.37
2018-07-19T06:15:28.541Z,3.22
2018-07-19T06:17:57.045Z,3.85
2018-07-19T06:20:25.530Z,3.25
2018-07-19T06:22:53.964Z,3.20
2018-07-19T06:25:22.478Z,3.33
2018-07-19T06:27:50.975Z,3.45
2018-07-19T06:30:19.412Z,3.40
2018-07-19T06:32:47.840Z,2.80
2018-07-19T06:35:17.301Z,3.10
2018-07-19T06:37:46.426Z,2.55
2018-07-19T06:40:15.674Z,3.17
2018-07-19T06:42:44.305Z,3.60
2018-07-19T06:45:13.053Z,3.00
2018-07-19T06:47:43.639Z,3.33
2018-07-19T06:50:12.166Z,2.60
2018-07-19T06:52:40.620Z,2.87
2018-07-19T06:55:09.144Z,2.95
2018-07-19T06:57:37.659Z,3.10
2018-07-19T07:00:07.481Z,3.10
2018-07-19T07:02:35.903Z,3.40
2018-07-19T07:05:04.594Z,2.92
2018-07-19T07:07:33.104Z,2.60
2018-07-19T07:10:02.145Z,3.00
2018-07-19T07:12:30.609Z,2.92
2018-07-19T07:14:59.090Z,2.98
2018-07-19T07:17:27.540Z,2.70
2018-07-19T07:19:56.000Z,2.50
2018-07-19T07:22:24.418Z,2.25
2018-07-19T07:24:52.882Z,2.20
2018-07-19T07:27:21.351Z,2.12
2018-07-19T07:29:49.749Z,2.20
2018-07-19T07:32:18.744Z,1.95
2018-07-19T07:34:47.371Z,1.77
2018-07-19T07:37:16.114Z,1.32
2018-07-19T07:39:44.596Z,1.10
2018-07-19T07:42:13.115Z,1.50
2018-07-19T07:44:42.565Z,1.60
2018-07-19T07:47:11.009Z,1.72
2018-07-19T07:49:39.457Z,1.40
2018-07-19T07:52:08.580Z,1.30
2018-07-19T07:54:37.110Z,1.10
2018-07-19T07:57:05.772Z,1.10
2018-07-19T07:59:34.621Z,1.22
2018-07-19T08:02:03.124Z,1.27
2018-07-19T08:04:31.594Z,1.20
2018-07-19T08:07:00.081Z,1.10
2018-07-19T08:09:28.544Z,1.02
2018-07-19T08:11:57.772Z,1.00
2018-07-19T08:14:26.556Z,1.30
2018-07-19T08:16:55.027Z,1.42
2018-07-19T08:19:23.438Z,1.30
2018-07-19T08:21:51.872Z,1.20
2018-07-19T08:24:20.344Z,1.30
2018-07-19T08:26:48.760Z,1.30
2018-07-19T08:29:17.455Z,1.30
2018-07-19T08:31:46.028Z,1.30
2018-07-19T08:34:14.520Z,1.27
2018-07-19T08:36:43.256Z,1.60
2018-07-19T08:39:13.651Z,1.40
2018-07-19T08:41:42.473Z,1.25
2018-07-19T08:44:10.945Z,1.40
2018-07-19T08:46:39.622Z,1.60
2018-07-19T08:49:08.308Z,1.40
2018-07-19T08:51:36.829Z,1.40
2018-07-19T08:54:05.468Z,1.75
2018-07-19T08:56:33.934Z,1.67
2018-07-19T08:59:03.025Z,1.30
2018-07-19T09:01:31.486Z,1.45
2018-07-19T09:03:59.950Z,1.50
2018-07-19T09:06:28.619Z,1.37
2018-07-19T09:08:57.117Z,1.37
2018-07-19T09:11:25.583Z,1.50
2018-07-19T09:13:54.504Z,1.52
2018-07-19T09:16:23.175Z,1.50
2018-07-19T09:18:51.597Z,1.50
2018-07-19T09:21:20.066Z,1.40
2018-07-19T09:23:48.518Z,1.70
2018-07-19T09:26:16.955Z,1.67
2018-07-19T09:28:45.368Z,1.55
2018-07-19T09:31:13.958Z,1.50
2018-07-19T09:33:43.293Z,1.80
2018-07-19T09:36:12.393Z,1.50
2018-07-19T09:38:40.869Z,1.50
2018-07-19T09:41:09.328Z,1.50
2018-07-19T09:43:37.902Z,1.40
2018-07-19T09:46:06.326Z,1.60
2018-07-19T09:48:34.756Z,1.95
2018-07-19T09:51:03.275Z,1.70
2018-07-19T09:53:31.845Z,1.57
2018-07-19T09:56:00.470Z,1.65
2018-07-19T09:58:29.088Z,1.60
2018-07-19T10:01:06.100Z,1.98
2018-07-19T10:03:35.344Z,1.67
2018-07-19T10:06:03.884Z,1.65
2018-07-19T10:08:32.407Z,1.70
2018-07-19T10:11:00.863Z,1.55
2018-07-19T10:13:29.404Z,1.60
2018-07-19T10:15:57.876Z,1.90
2018-07-19T10:18:26.732Z,1.85
2018-07-19T10:20:55.341Z,1.77
2018-07-19T10:23:24.022Z,1.82
2018-07-19T10:25:52.612Z,1.92
2018-07-19T10:28:22.008Z,1.80
2018-07-19T10:30:50.572Z,2.20
2018-07-19T10:33:19.652Z,1.92
2018-07-19T10:35:48.275Z,1.90
2018-07-19T10:38:16.697Z,2.30
2018-07-19T10:40:45.276Z,2.10
2018-07-19T10:43:14.352Z,1.90
2018-07-19T10:45:42.837Z,2.40
2018-07-19T10:48:11.317Z,1.85
2018-07-19T10:50:39.800Z,2.00
2018-07-19T10:53:08.242Z,1.72
2018-07-19T10:55:36.718Z,1.95
2018-07-19T10:58:05.340Z,1.80
2018-07-19T11:00:33.898Z,2.15
2018-07-19T11:03:02.350Z,2.08
2018-07-19T11:05:30.784Z,2.08
2018-07-19T11:07:59.244Z,1.95
2018-07-19T11:10:27.696Z,1.95
2018-07-19T11:12:56.318Z,2.10
2018-07-19T11:15:24.802Z,2.10
2018-07-19T11:17:53.380Z,1.77
2018-07-19T11:20:22.895Z,1.85
2018-07-19T11:22:51.405Z,1.95
2018-07-19T11:25:20.505Z,2.00
2018-07-19T11:27:48.985Z,1.77
2018-07-19T11:30:17.424Z,1.80
2018-07-19T11:32:46.505Z,1.80
2018-07-19T11:35:15.074Z,2.33
2018-07-19T11:37:43.517Z,2.37
2018-07-19T11:40:12.029Z,2.10
2018-07-19T11:42:40.525Z,2.10
2018-07-19T11:45:08.982Z,2.27
2018-07-19T11:47:37.438Z,2.12
2018-07-19T11:50:06.211Z,1.87
2018-07-19T11:52:34.640Z,1.77
2018-07-19T11:55:03.099Z,2.00
2018-07-19T11:57:31.764Z,2.15
2018-07-19T12:00:00.404Z,2.00
2018-07-19T12:02:28.838Z,2.40
2018-07-19T12:04:57.479Z,2.33
2018-07-19T12:07:25.961Z,1.82
2018-07-19T12:09:54.505Z,2.00
2018-07-19T12:12:23.125Z,2.02
2018-07-19T12:14:51.575Z,1.75
2018-07-19T12:17:20.088Z,1.80
2018-07-19T12:19:48.637Z,1.80
2018-07-19T12:22:17.165Z,2.00
2018-07-19T12:24:45.721Z,2.08
2018-07-19T12:27:14.244Z,2.10
2018-07-19T12:29:43.288Z,2.02
2018-07-19T12:32:11.772Z,1.90
2018-07-19T12:34:40.179Z,2.12
2018-07-19T12:37:09.368Z,2.10
2018-07-19T12:39:37.825Z,2.17
2018-07-19T12:42:06.469Z,2.05
2018-07-19T12:44:34.917Z,2.02
2018-07-19T12:47:03.485Z,2.40
2018-07-19T12:49:31.977Z,1.95
2018-07-19T12:52:01.123Z,2.20
2018-07-19T12:54:29.577Z,2.20
2018-07-19T12:56:58.127Z,2.10
2018-07-19T12:59:26.582Z,1.92
2018-07-19T13:01:55.138Z,2.22
2018-07-19T13:04:23.641Z,2.02
2018-07-19T13:06:52.217Z,2.20
2018-07-19T13:09:20.705Z,2.12
2018-07-19T13:11:49.169Z,2.05
2018-07-19T13:14:17.629Z,2.10
2018-07-19T13:16:46.781Z,2.05
2018-07-19T13:19:15.204Z,2.15
2018-07-19T13:21:43.632Z,2.22
2018-07-19T13:24:12.109Z,2.25
2018-07-19T13:26:40.604Z,2.47
2018-07-19T13:29:09.052Z,2.10
2018-07-19T13:31:37.698Z,2.47
2018-07-19T13:34:06.213Z,2.25
2018-07-19T13:36:34.711Z,2.33
2018-07-19T13:39:03.133Z,2.20
2018-07-19T13:41:31.622Z,2.22
2018-07-19T13:44:00.079Z,2.27
2018-07-19T13:46:28.633Z,2.60
2018-07-19T13:48:56.754Z,2.30
2018-07-19T13:51:25.232Z,2.27
2018-07-19T13:54:22.025Z,2.22
2018-07-19T13:56:50.468Z,2.20
2018-07-19T13:59:19.032Z,2.40
2018-07-19T14:01:47.515Z,2.27
2018-07-19T14:04:16.208Z,3.50
2018-07-19T14:06:44.674Z,2.67
2018-07-19T14:09:14.374Z,2.30
2018-07-19T14:11:42.832Z,2.67
2018-07-19T14:14:11.698Z,3.02
2018-07-19T14:16:40.300Z,2.52
2018-07-19T14:19:08.777Z,2.83
2018-07-19T14:21:37.310Z,3.05
2018-07-19T14:24:06.204Z,2.62
2018-07-19T14:26:35.481Z,2.50
2018-07-19T14:29:03.926Z,2.47
2018-07-19T14:31:33.193Z,2.67
2018-07-19T14:34:01.666Z,2.20
2018-07-19T14:36:30.149Z,2.30
2018-07-19T14:38:58.632Z,2.12
2018-07-19T14:41:27.097Z,2.55
2018-07-19T14:43:55.552Z,2.40
2018-07-19T14:46:23.997Z,2.12
2018-07-19T14:48:52.566Z,2.42
2018-07-19T14:51:21.577Z,2.35
2018-07-19T14:53:50.108Z,2.25
2018-07-19T14:56:18.524Z,2.17
2018-07-19T14:58:47.177Z,1.98
2018-07-19T15:01:15.632Z,3.00
2018-07-19T15:03:44.693Z,2.47
2018-07-19T15:06:13.192Z,1.95
2018-07-19T15:08:41.653Z,2.22
2018-07-19T15:11:10.107Z,2.27
2018-07-19T15:13:38.601Z,3.60
2018-07-19T15:16:07.169Z,2.27
2018-07-19T15:18:35.693Z,2.27
2018-07-19T15:21:04.181Z,2.42
2018-07-19T15:23:32.649Z,2.60
2018-07-19T15:26:01.216Z,3.40
2018-07-19T15:28:29.679Z,2.40
2018-07-19T15:30:58.218Z,2.60
2018-07-19T15:33:26.648Z,2.55
2018-07-19T15:35:55.140Z,2.35
2018-07-19T15:38:23.599Z,6.67
2018-07-19T15:40:52.050Z,3.85
2018-07-19T15:43:20.476Z,2.60
2018-07-19T15:45:48.922Z,2.62
2018-07-19T15:48:17.326Z,2.40
2018-07-19T15:50:45.831Z,2.40
2018-07-19T15:53:14.344Z,2.42
2018-07-19T15:55:42.835Z,2.30
2018-07-19T15:58:11.276Z,2.20
2018-07-19T16:00:39.729Z,2.67
2018-07-19T16:03:08.131Z,2.30
2018-07-19T16:05:36.565Z,2.40
2018-07-19T16:08:05.153Z,2.65
2018-07-19T16:10:33.645Z,2.85
2018-07-19T16:13:02.795Z,3.05
2018-07-19T16:15:31.335Z,3.02
2018-07-19T16:17:59.779Z,2.30
2018-07-19T16:20:28.216Z,3.60
2018-07-19T16:22:56.791Z,9.60
2018-07-19T16:25:25.297Z,2.52
2018-07-19T16:27:53.773Z,2.72
2018-07-19T16:30:22.887Z,2.72
2018-07-19T16:32:51.402Z,2.40
2018-07-19T16:35:19.907Z,2.45
2018-07-19T16:37:49.224Z,2.47
2018-07-19T16:40:17.879Z,2.42
2018-07-19T16:42:46.509Z,2.80
2018-07-19T16:45:15.940Z,2.55
2018-07-19T16:47:44.458Z,2.77
2018-07-19T16:50:12.881Z,3.00
2018-07-19T16:52:41.425Z,2.60
2018-07-19T16:55:09.942Z,2.20
2018-07-19T16:57:39.197Z,2.45
2018-07-19T17:00:07.679Z,2.30
2018-07-19T17:02:36.187Z,2.27
2018-07-19T17:05:05.189Z,2.45
2018-07-19T17:07:33.652Z,2.25
2018-07-19T17:10:02.075Z,2.50
2018-07-19T17:12:30.533Z,2.37
2018-07-19T17:14:58.968Z,2.45
2018-07-19T17:17:34.188Z,2.80
2018-07-19T17:20:02.605Z,2.60
2018-07-19T17:22:31.048Z,2.30
2018-07-19T17:24:59.471Z,2.80
2018-07-19T17:27:27.978Z,2.45
2018-07-19T17:29:56.514Z,3.17
2018-07-19T17:32:24.957Z,2.52
2018-07-19T17:34:53.440Z,2.30
2018-07-19T17:37:22.114Z,2.75
2018-07-19T17:39:50.553Z,2.50
2018-07-19T17:42:19.251Z,2.40
2018-07-19T17:44:47.800Z,2.92
2018-07-19T17:47:16.354Z,4.08
2018-07-19T17:49:44.797Z,3.77
2018-07-19T17:52:13.226Z,3.40
2018-07-19T17:54:41.795Z,7.97
2018-07-19T17:57:10.205Z,3.30
2018-07-19T17:59:39.222Z,2.62
2018-07-19T18:02:07.693Z,2.62
2018-07-19T18:04:36.160Z,2.40
2018-07-19T18:07:04.789Z,2.33
2018-07-19T18:09:33.221Z,2.27
2018-07-19T18:12:02.289Z,2.35
2018-07-19T18:14:30.745Z,9.25
2018-07-19T18:16:59.205Z,3.12
2018-07-19T18:19:27.640Z,2.27
2018-07-19T18:21:56.135Z,2.92
2018-07-19T18:24:24.644Z,3.58
2018-07-19T18:26:53.506Z,2.83
2018-07-19T18:29:22.009Z,2.85
2018-07-19T18:31:50.635Z,3.60
2018-07-19T18:34:19.345Z,2.80
2018-07-19T18:36:47.893Z,2.50
2018-07-19T18:39:16.408Z,2.47
2018-07-19T18:41:44.997Z,3.00
2018-07-19T18:44:13.714Z,3.00
2018-07-19T18:46:42.348Z,2.62
2018-07-19T18:49:10.834Z,2.70
2018-07-19T18:51:39.285Z,2.80
2018-07-19T18:54:07.809Z,2.50
2018-07-19T18:56:36.278Z,6.78
2018-07-19T18:59:04.777Z,5.97
2018-07-19T19:01:33.361Z,3.60
2018-07-19T19:04:01.842Z,2.80
2018-07-19T19:06:30.405Z,2.95
2018-07-19T19:08:58.916Z,2.85
2018-07-19T19:11:28.009Z,3.37
2018-07-19T19:13:56.473Z,3.20
2018-07-19T19:16:24.924Z,2.95
2018-07-19T19:18:53.452Z,4.08
2018-07-19T19:21:21.909Z,3.90
2018-07-19T19:23:50.452Z,3.02
2018-07-19T19:26:18.979Z,2.80
2018-07-19T19:28:47.407Z,2.77
2018-07-19T19:31:15.872Z,3.00
2018-07-19T19:33:44.368Z,3.10
2018-07-19T19:36:12.832Z,2.95
2018-07-19T19:38:41.380Z,2.98
2018-07-19T19:41:09.823Z,2.67
2018-07-19T19:43:38.341Z,2.60
2018-07-19T19:46:07.448Z,3.27
2018-07-19T19:48:36.700Z,3.15
2018-07-19T19:51:06.763Z,3.20
2018-07-19T19:53:36.166Z,2.83
2018-07-19T19:56:05.276Z,3.33
2018-07-19T19:58:33.821Z,3.33
2018-07-19T20:01:02.296Z,3.50
2018-07-19T20:03:30.782Z,3.27
2018-07-19T20:05:59.342Z,2.70
2018-07-19T20:08:27.842Z,3.10
2018-07-19T20:10:56.401Z,5.42
2018-07-19T20:13:24.902Z,4.00
2018-07-19T20:15:53.461Z,4.17
2018-07-19T20:18:22.074Z,3.45
2018-07-19T20:20:50.497Z,3.05
2018-07-19T20:23:19.234Z,3.45
2018-07-19T20:25:47.684Z,3.95
2018-07-19T20:28:16.318Z,4.60
2018-07-19T20:30:44.853Z,3.90
2018-07-19T20:33:13.501Z,3.60
2018-07-19T20:35:41.951Z,3.30
2018-07-19T20:38:10.493Z,3.20
2018-07-19T20:40:38.902Z,3.00
2018-07-19T20:43:07.449Z,2.95
2018-07-19T20:45:35.941Z,2.55
2018-07-19T20:48:04.497Z,3.10
2018-07-19T20:50:33.000Z,3.40
2018-07-19T20:53:01.748Z,2.50
2018-07-19T20:55:30.788Z,2.72
2018-07-19T20:57:59.357Z,3.33
2018-07-19T21:00:27.822Z,3.52
2018-07-19T21:02:56.256Z,3.33
2018-07-19T21:05:24.966Z,3.52
2018-07-19T21:07:53.532Z,3.15
2018-07-19T21:10:21.994Z,3.00
2018-07-19T21:12:50.582Z,2.87
2018-07-19T21:15:19.349Z,3.60
2018-07-19T21:17:47.913Z,4.00
2018-07-19T21:20:17.165Z,3.30
2018-07-19T21:22:45.600Z,3.40
2018-07-19T21:25:14.045Z,2.90
2018-07-19T21:27:43.194Z,2.75
2018-07-19T21:30:11.691Z,2.60
2018-07-19T21:32:40.371Z,3.00
2018-07-19T21:35:08.829Z,2.83
2018-07-19T21:37:37.284Z,2.50
2018-07-19T21:40:05.724Z,2.55
2018-07-19T21:42:34.175Z,2.75
2018-07-19T21:45:02.585Z,2.92
2018-07-19T21:47:31.062Z,3.10
2018-07-19T21:49:59.516Z,3.08
2018-07-19T21:52:28.001Z,2.90
2018-07-19T21:54:56.418Z,3.10
2018-07-19T21:57:24.872Z,4.12
2018-07-19T21:59:53.373Z,3.10
2018-07-19T22:02:21.874Z,2.87
2018-07-19T22:04:49.976Z,2.70
2018-07-19T22:07:18.452Z,2.72
2018-07-19T22:09:53.217Z,2.72
2018-07-19T22:12:21.810Z,2.95
2018-07-19T22:14:50.319Z,2.90
2018-07-19T22:17:19.003Z,2.90
2018-07-19T22:19:47.557Z,2.72
2018-07-19T22:22:16.066Z,2.87
2018-07-19T22:24:44.658Z,3.08
2018-07-19T22:27:13.132Z,2.92
2018-07-19T22:29:41.592Z,2.37
2018-07-19T22:32:10.071Z,2.95
2018-07-19T22:34:38.569Z,3.05
2018-07-19T22:37:07.004Z,2.80
2018-07-19T22:39:35.433Z,3.50
2018-07-19T22:42:03.868Z,3.30
2018-07-19T22:44:32.549Z,3.27
2018-07-19T22:47:01.159Z,2.90
2018-07-19T22:49:29.580Z,3.27
2018-07-19T22:51:58.048Z,3.10
2018-07-19T22:54:27.064Z,3.20
2018-07-19T22:56:55.469Z,3.00
2018-07-19T22:59:23.904Z,3.47
2018-07-19T23:01:53.016Z,3.00
2018-07-19T23:04:21.492Z,3.42
2018-07-19T23:06:49.904Z,2.95
2018-07-19T23:09:18.368Z,3.20
2018-07-19T23:11:46.841Z,3.47
2018-07-19T23:14:15.273Z,3.85
2018-07-19T23:16:43.699Z,3.40
2018-07-19T23:19:12.373Z,3.17
2018-07-19T23:21:41.715Z,3.50
2018-07-19T23:24:10.123Z,3.20
2018-07-19T23:26:38.581Z,3.45
2018-07-19T23:29:07.023Z,3.40
2018-07-19T23:31:35.445Z,3.35
2018-07-19T23:34:03.937Z,3.70
2018-07-19T23:36:35.511Z,3.40
2018-07-19T23:39:10.088Z,3.62
2018-07-19T23:41:44.126Z,3.33
2018-07-19T23:44:17.975Z,3.67
2018-07-19T23:46:51.276Z,3.55
2018-07-19T23:49:19.759Z,3.52
2018-07-19T23:51:49.103Z,3.60
2018-07-19T23:54:17.529Z,3.40
2018-07-19T23:56:45.978Z,3.60
2018-07-19T23:59:14.369Z,3.62
